sensor_id;sensor_type;location;lat;lon;timestamp;pressure;altitude;pressure_sealevel;temperature;humidity
39301;BME280;25019;42.626;23.380;2023-04-27T00:00:36;94105.91;;;6.96;66.11
39301;BME280;25019;42.626;23.380;2023-04-27T00:03:02;94118.28;;;6.96;66.24
39301;BME280;25019;42.626;23.380;2023-04-27T00:05:37;94047.75;;;6.55;65.50
39301;BME280;25019;42.626;23.380;2023-04-27T00:08:04;94113.81;;;6.96;65.78
39301;BME280;25019;42.626;23.380;2023-04-27T00:10:30;94116.94;;;6.93;65.39
39301;BME280;25019;42.626;23.380;2023-04-27T00:12:55;94121.63;;;6.91;65.20
39301;BME280;25019;42.626;23.380;2023-04-27T00:15:21;94116.34;;;6.91;65.21
39301;BME280;25019;42.626;23.380;2023-04-27T00:17:47;94112.78;;;6.85;65.64
39301;BME280;25019;42.626;23.380;2023-04-27T00:20:13;94065.44;;;6.55;65.55
39301;BME280;25019;42.626;23.380;2023-04-27T00:22:39;94081.59;;;6.58;65.41
39301;BME280;25019;42.626;23.380;2023-04-27T00:25:05;94121.41;;;6.81;65.91
39301;BME280;25019;42.626;23.380;2023-04-27T00:27:31;94102.03;;;6.63;65.34
39301;BME280;25019;42.626;23.380;2023-04-27T00:29:57;94095.81;;;6.57;65.29
39301;BME280;25019;42.626;23.380;2023-04-27T00:32:23;94083.91;;;6.43;65.99
39301;BME280;25019;42.626;23.380;2023-04-27T00:34:48;94125.88;;;6.56;66.45
39301;BME280;25019;42.626;23.380;2023-04-27T00:37:14;94114.41;;;6.51;66.02
39301;BME280;25019;42.626;23.380;2023-04-27T00:39:40;94101.47;;;6.37;66.17
39301;BME280;25019;42.626;23.380;2023-04-27T00:42:06;94106.97;;;6.36;65.96
39301;BME280;25019;42.626;23.380;2023-04-27T00:44:35;94122.22;;;6.34;66.66
39301;BME280;25019;42.626;23.380;2023-04-27T00:47:01;94033.97;;;5.70;66.61
39301;BME280;25019;42.626;23.380;2023-04-27T00:49:27;94088.69;;;5.98;66.32
39301;BME280;25019;42.626;23.380;2023-04-27T00:51:54;94119.94;;;6.25;66.61
39301;BME280;25019;42.626;23.380;2023-04-27T00:54:21;94138.03;;;6.22;66.22
39301;BME280;25019;42.626;23.380;2023-04-27T00:56:48;94122.75;;;6.12;67.10
39301;BME280;25019;42.626;23.380;2023-04-27T00:59:15;94065.81;;;5.68;67.21
39301;BME280;25019;42.626;23.380;2023-04-27T01:01:41;94102.38;;;5.89;67.35
39301;BME280;25019;42.626;23.380;2023-04-27T01:04:06;94130.84;;;5.98;67.17
39301;BME280;25019;42.626;23.380;2023-04-27T01:06:32;94144.81;;;5.99;67.59
39301;BME280;25019;42.626;23.380;2023-04-27T01:08:57;94155.03;;;5.95;67.46
39301;BME280;25019;42.626;23.380;2023-04-27T01:11:23;94104.19;;;5.64;67.86
39301;BME280;25019;42.626;23.380;2023-04-27T01:13:50;94033.69;;;5.17;67.53
39301;BME280;25019;42.626;23.380;2023-04-27T01:16:17;94144.06;;;5.80;68.34
39301;BME280;25019;42.626;23.380;2023-04-27T01:18:42;94145.59;;;5.88;67.83
39301;BME280;25019;42.626;23.380;2023-04-27T01:21:09;94067.72;;;5.31;67.87
39301;BME280;25019;42.626;23.380;2023-04-27T01:23:34;94008.50;;;4.91;68.02
39301;BME280;25019;42.626;23.380;2023-04-27T01:26:00;94077.91;;;5.27;67.77
39301;BME280;25019;42.626;23.380;2023-04-27T01:28:26;94149.75;;;5.65;68.61
39301;BME280;25019;42.626;23.380;2023-04-27T01:30:51;94150.00;;;5.63;68.57
39301;BME280;25019;42.626;23.380;2023-04-27T01:33:17;94153.22;;;5.65;68.38
39301;BME280;25019;42.626;23.380;2023-04-27T01:35:43;94142.38;;;5.55;68.15
39301;BME280;25019;42.626;23.380;2023-04-27T01:38:08;94151.59;;;5.64;68.52
39301;BME280;25019;42.626;23.380;2023-04-27T01:40:34;94154.22;;;5.64;68.26
39301;BME280;25019;42.626;23.380;2023-04-27T01:43:00;94077.88;;;5.15;68.16
39301;BME280;25019;42.626;23.380;2023-04-27T01:45:27;94145.47;;;5.52;68.31
39301;BME280;25019;42.626;23.380;2023-04-27T01:47:53;94156.00;;;5.52;67.84
39301;BME280;25019;42.626;23.380;2023-04-27T01:50:19;94075.72;;;4.93;68.43
39301;BME280;25019;42.626;23.380;2023-04-27T01:52:45;94081.47;;;5.02;68.24
39301;BME280;25019;42.626;23.380;2023-04-27T01:55:10;94136.47;;;5.41;68.52
39301;BME280;25019;42.626;23.380;2023-04-27T01:57:36;94144.38;;;5.41;68.07
39301;BME280;25019;42.626;23.380;2023-04-27T02:00:02;94105.88;;;5.09;67.93
39301;BME280;25019;42.626;23.380;2023-04-27T02:02:46;94141.47;;;5.31;67.73
39301;BME280;25019;42.626;23.380;2023-04-27T02:05:11;94091.66;;;4.99;68.40
39301;BME280;25019;42.626;23.380;2023-04-27T02:07:37;94142.97;;;5.27;68.30
39301;BME280;25019;42.626;23.380;2023-04-27T02:10:03;94080.81;;;4.88;67.61
39301;BME280;25019;42.626;23.380;2023-04-27T02:12:28;94168.09;;;5.41;67.77
39301;BME280;25019;42.626;23.380;2023-04-27T02:14:54;94067.94;;;4.80;67.95
39301;BME280;25019;42.626;23.380;2023-04-27T02:17:20;94160.03;;;5.36;67.43
39301;BME280;25019;42.626;23.380;2023-04-27T02:19:45;94135.19;;;5.13;67.55
39301;BME280;25019;42.626;23.380;2023-04-27T02:22:11;94161.06;;;5.35;67.62
39301;BME280;25019;42.626;23.380;2023-04-27T02:24:37;94115.34;;;4.99;68.07
39301;BME280;25019;42.626;23.380;2023-04-27T02:27:02;94158.81;;;5.38;67.42
39301;BME280;25019;42.626;23.380;2023-04-27T02:29:30;94152.09;;;5.24;67.33
39301;BME280;25019;42.626;23.380;2023-04-27T02:31:56;94049.31;;;4.63;67.91
39301;BME280;25019;42.626;23.380;2023-04-27T02:34:21;94165.75;;;5.33;67.62
39301;BME280;25019;42.626;23.380;2023-04-27T02:36:47;94141.88;;;5.16;68.21
39301;BME280;25019;42.626;23.380;2023-04-27T02:39:13;94148.50;;;5.18;67.59
39301;BME280;25019;42.626;23.380;2023-04-27T02:41:39;94137.84;;;5.13;67.75
39301;BME280;25019;42.626;23.380;2023-04-27T02:44:04;94149.19;;;5.14;67.96
39301;BME280;25019;42.626;23.380;2023-04-27T02:46:30;94149.38;;;5.12;67.62
39301;BME280;25019;42.626;23.380;2023-04-27T02:48:56;94021.41;;;4.25;67.33
39301;BME280;25019;42.626;23.380;2023-04-27T02:51:22;94155.75;;;5.04;67.14
39301;BME280;25019;42.626;23.380;2023-04-27T02:53:48;94086.03;;;4.58;67.75
39301;BME280;25019;42.626;23.380;2023-04-27T02:56:13;94097.50;;;4.63;68.00
39301;BME280;25019;42.626;23.380;2023-04-27T02:58:39;94143.69;;;4.97;67.93
39301;BME280;25019;42.626;23.380;2023-04-27T03:01:05;94110.78;;;4.69;67.53
39301;BME280;25019;42.626;23.380;2023-04-27T03:03:30;94032.53;;;4.27;67.17
39301;BME280;25019;42.626;23.380;2023-04-27T03:05:56;94152.19;;;4.99;66.81
39301;BME280;25019;42.626;23.380;2023-04-27T03:08:22;94098.50;;;4.62;67.16
39301;BME280;25019;42.626;23.380;2023-04-27T03:10:47;94185.56;;;5.17;66.62
39301;BME280;25019;42.626;23.380;2023-04-27T03:13:13;94152.19;;;4.99;67.10
39301;BME280;25019;42.626;23.380;2023-04-27T03:15:42;94065.97;;;4.38;67.33
39301;BME280;25019;42.626;23.380;2023-04-27T03:18:07;94108.88;;;4.57;67.10
39301;BME280;25019;42.626;23.380;2023-04-27T03:20:33;94159.09;;;4.93;67.15
39301;BME280;25019;42.626;23.380;2023-04-27T03:22:59;94201.25;;;5.12;66.91
39301;BME280;25019;42.626;23.380;2023-04-27T03:25:24;94129.41;;;4.67;66.66
39301;BME280;25019;42.626;23.380;2023-04-27T03:27:50;94168.84;;;4.92;67.31
39301;BME280;25019;42.626;23.380;2023-04-27T03:30:16;94200.22;;;5.13;67.57
39301;BME280;25019;42.626;23.380;2023-04-27T03:32:42;94199.41;;;5.12;67.17
39301;BME280;25019;42.626;23.380;2023-04-27T03:35:08;94196.94;;;5.17;67.32
39301;BME280;25019;42.626;23.380;2023-04-27T03:37:34;94204.25;;;5.15;66.80
39301;BME280;25019;42.626;23.380;2023-04-27T03:40:00;94142.56;;;4.67;66.75
39301;BME280;25019;42.626;23.380;2023-04-27T03:42:25;94200.72;;;5.03;67.44
39301;BME280;25019;42.626;23.380;2023-04-27T03:44:51;94197.34;;;4.95;67.80
39301;BME280;25019;42.626;23.380;2023-04-27T03:47:17;94177.88;;;4.78;67.58
39301;BME280;25019;42.626;23.380;2023-04-27T03:49:42;94133.72;;;4.61;66.64
39301;BME280;25019;42.626;23.380;2023-04-27T03:52:09;94164.28;;;4.81;66.60
39301;BME280;25019;42.626;23.380;2023-04-27T03:54:35;94173.94;;;4.87;66.38
39301;BME280;25019;42.626;23.380;2023-04-27T03:57:01;94219.38;;;5.01;66.28
39301;BME280;25019;42.626;23.380;2023-04-27T03:59:28;94223.47;;;5.16;66.32
39301;BME280;25019;42.626;23.380;2023-04-27T04:01:54;94161.06;;;4.79;65.92
39301;BME280;25019;42.626;23.380;2023-04-27T04:04:22;94162.25;;;4.83;65.99
39301;BME280;25019;42.626;23.380;2023-04-27T04:06:47;94225.38;;;5.27;65.42
39301;BME280;25019;42.626;23.380;2023-04-27T04:09:13;94156.97;;;4.83;64.84
39301;BME280;25019;42.626;23.380;2023-04-27T04:11:39;94231.91;;;5.24;63.94
39301;BME280;25019;42.626;23.380;2023-04-27T04:14:06;94241.16;;;5.27;64.43
39301;BME280;25019;42.626;23.380;2023-04-27T04:16:35;94244.97;;;5.31;64.73
39301;BME280;25019;42.626;23.380;2023-04-27T04:19:00;94201.97;;;5.00;63.81
39301;BME280;25019;42.626;23.380;2023-04-27T04:21:26;94250.16;;;5.38;64.36
39301;BME280;25019;42.626;23.380;2023-04-27T04:23:52;94195.00;;;5.06;63.30
39301;BME280;25019;42.626;23.380;2023-04-27T04:26:18;94237.00;;;5.38;63.63
39301;BME280;25019;42.626;23.380;2023-04-27T04:28:44;94255.97;;;5.65;63.72
39301;BME280;25019;42.626;23.380;2023-04-27T04:31:10;94267.34;;;5.78;63.27
39301;BME280;25019;42.626;23.380;2023-04-27T04:33:36;94265.75;;;5.95;63.16
39301;BME280;25019;42.626;23.380;2023-04-27T04:36:03;94248.16;;;5.89;62.95
39301;BME280;25019;42.626;23.380;2023-04-27T04:38:30;94178.91;;;5.51;61.81
39301;BME280;25019;42.626;23.380;2023-04-27T04:40:58;94248.75;;;6.10;62.35
39301;BME280;25019;42.626;23.380;2023-04-27T04:43:23;94255.47;;;6.06;61.10
39301;BME280;25019;42.626;23.380;2023-04-27T04:45:49;94250.44;;;6.04;60.98
39301;BME280;25019;42.626;23.380;2023-04-27T04:48:16;94156.44;;;5.49;60.34
39301;BME280;25019;42.626;23.380;2023-04-27T04:50:44;94276.03;;;6.15;60.71
39301;BME280;25019;42.626;23.380;2023-04-27T04:53:11;94276.56;;;6.24;60.12
39301;BME280;25019;42.626;23.380;2023-04-27T04:55:37;94205.00;;;5.72;59.67
39301;BME280;25019;42.626;23.380;2023-04-27T04:58:03;94276.75;;;6.23;60.05
39301;BME280;25019;42.626;23.380;2023-04-27T05:00:29;94190.88;;;5.84;60.50
39301;BME280;25019;42.626;23.380;2023-04-27T05:02:55;94297.19;;;6.58;59.52
39301;BME280;25019;42.626;23.380;2023-04-27T05:05:20;94288.44;;;6.57;59.67
39301;BME280;25019;42.626;23.380;2023-04-27T05:07:46;94228.00;;;6.56;58.83
39301;BME280;25019;42.626;23.380;2023-04-27T05:10:12;94300.25;;;7.09;57.44
39301;BME280;25019;42.626;23.380;2023-04-27T05:12:37;94261.09;;;6.82;57.61
39301;BME280;25019;42.626;23.380;2023-04-27T05:15:04;94300.28;;;7.21;57.45
39301;BME280;25019;42.626;23.380;2023-04-27T05:17:29;94191.28;;;6.54;56.54
39301;BME280;25019;42.626;23.380;2023-04-27T05:19:55;94295.09;;;7.26;56.17
39301;BME280;25019;42.626;23.380;2023-04-27T05:22:22;94297.06;;;7.07;57.16
39301;BME280;25019;42.626;23.380;2023-04-27T05:24:48;94301.31;;;7.20;57.02
39301;BME280;25019;42.626;23.380;2023-04-27T05:27:13;94300.16;;;7.16;57.32
39301;BME280;25019;42.626;23.380;2023-04-27T05:29:39;94259.81;;;6.85;57.15
39301;BME280;25019;42.626;23.380;2023-04-27T05:32:08;94318.28;;;7.12;56.84
39301;BME280;25019;42.626;23.380;2023-04-27T05:34:34;94306.59;;;7.08;57.44
39301;BME280;25019;42.626;23.380;2023-04-27T05:37:00;94315.09;;;7.22;57.62
39301;BME280;25019;42.626;23.380;2023-04-27T05:39:25;94315.63;;;7.12;56.76
39301;BME280;25019;42.626;23.380;2023-04-27T05:41:52;94313.69;;;7.08;57.16
39301;BME280;25019;42.626;23.380;2023-04-27T05:44:21;94236.75;;;6.68;57.38
39301;BME280;25019;42.626;23.380;2023-04-27T05:46:52;94242.13;;;6.73;57.50
39301;BME280;25019;42.626;23.380;2023-04-27T05:49:18;94293.38;;;7.20;57.91
39301;BME280;25019;42.626;23.380;2023-04-27T05:51:44;94320.47;;;7.63;57.26
39301;BME280;25019;42.626;23.380;2023-04-27T05:54:09;94241.69;;;7.00;57.12
39301;BME280;25019;42.626;23.380;2023-04-27T05:56:35;94313.47;;;7.57;56.96
39301;BME280;25019;42.626;23.380;2023-04-27T05:59:02;94232.97;;;6.88;56.83
39301;BME280;25019;42.626;23.380;2023-04-27T06:01:28;94312.09;;;7.18;56.58
39301;BME280;25019;42.626;23.380;2023-04-27T06:03:56;94317.03;;;7.27;57.13
39301;BME280;25019;42.626;23.380;2023-04-27T06:06:26;94273.94;;;6.90;58.01
39301;BME280;25019;42.626;23.380;2023-04-27T06:08:52;94171.53;;;6.33;57.64
39301;BME280;25019;42.626;23.380;2023-04-27T06:11:18;94296.34;;;7.24;57.45
39301;BME280;25019;42.626;23.380;2023-04-27T06:13:44;94313.56;;;7.26;57.68
39301;BME280;25019;42.626;23.380;2023-04-27T06:16:09;94245.16;;;7.01;57.37
39301;BME280;25019;42.626;23.380;2023-04-27T06:18:35;94244.91;;;7.02;56.72
39301;BME280;25019;42.626;23.380;2023-04-27T06:21:03;94207.34;;;6.77;57.51
39301;BME280;25019;42.626;23.380;2023-04-27T06:23:29;94319.53;;;7.57;58.11
39301;BME280;25019;42.626;23.380;2023-04-27T06:25:55;94218.00;;;7.29;56.52
39301;BME280;25019;42.626;23.380;2023-04-27T06:28:21;94205.63;;;7.18;56.09
39301;BME280;25019;42.626;23.380;2023-04-27T06:30:46;94287.25;;;7.79;56.22
39301;BME280;25019;42.626;23.380;2023-04-27T06:33:12;94336.44;;;8.33;56.67
39301;BME280;25019;42.626;23.380;2023-04-27T06:35:38;94311.63;;;8.51;55.94
39301;BME280;25019;42.626;23.380;2023-04-27T06:38:03;94340.06;;;9.02;53.93
39301;BME280;25019;42.626;23.380;2023-04-27T06:40:29;94296.69;;;8.74;54.07
39301;BME280;25019;42.626;23.380;2023-04-27T06:42:55;94224.94;;;8.29;53.31
39301;BME280;25019;42.626;23.380;2023-04-27T06:45:20;94326.94;;;8.95;53.89
39301;BME280;25019;42.626;23.380;2023-04-27T06:47:46;94303.38;;;8.93;53.67
39301;BME280;25019;42.626;23.380;2023-04-27T06:50:12;94304.97;;;9.28;53.41
39301;BME280;25019;42.626;23.380;2023-04-27T06:52:38;94268.84;;;9.22;52.33
39301;BME280;25019;42.626;23.380;2023-04-27T06:55:04;94304.19;;;9.67;51.45
39301;BME280;25019;42.626;23.380;2023-04-27T06:57:30;94291.31;;;9.76;51.40
39301;BME280;25019;42.626;23.380;2023-04-27T06:59:56;94243.44;;;9.66;51.35
39301;BME280;25019;42.626;23.380;2023-04-27T07:02:22;94292.69;;;10.23;50.00
39301;BME280;25019;42.626;23.380;2023-04-27T07:04:47;94314.41;;;10.20;50.24
39301;BME280;25019;42.626;23.380;2023-04-27T07:07:13;94293.63;;;9.89;50.66
39301;BME280;25019;42.626;23.380;2023-04-27T07:09:39;94316.56;;;10.01;50.45
39301;BME280;25019;42.626;23.380;2023-04-27T07:12:06;94309.09;;;9.98;50.83
39301;BME280;25019;42.626;23.380;2023-04-27T07:14:32;94322.66;;;9.79;51.19
39301;BME280;25019;42.626;23.380;2023-04-27T07:16:58;94277.06;;;9.43;51.33
39301;BME280;25019;42.626;23.380;2023-04-27T07:19:24;94263.13;;;9.31;51.27
39301;BME280;25019;42.626;23.380;2023-04-27T07:21:53;94322.28;;;9.70;51.35
39301;BME280;25019;42.626;23.380;2023-04-27T07:24:19;94245.41;;;9.14;52.24
39301;BME280;25019;42.626;23.380;2023-04-27T07:26:48;94291.13;;;9.83;51.11
39301;BME280;25019;42.626;23.380;2023-04-27T07:29:13;94295.38;;;9.84;50.25
39301;BME280;25019;42.626;23.380;2023-04-27T07:31:41;94309.88;;;9.76;50.35
39301;BME280;25019;42.626;23.380;2023-04-27T07:34:07;94304.97;;;10.07;50.68
39301;BME280;25019;42.626;23.380;2023-04-27T07:36:36;94283.72;;;10.29;49.34
39301;BME280;25019;42.626;23.380;2023-04-27T07:39:02;94320.94;;;10.34;49.44
39301;BME280;25019;42.626;23.380;2023-04-27T07:41:29;94313.31;;;10.66;49.58
39301;BME280;25019;42.626;23.380;2023-04-27T07:43:55;94309.91;;;10.98;48.01
39301;BME280;25019;42.626;23.380;2023-04-27T07:46:22;94308.94;;;11.09;47.53
39301;BME280;25019;42.626;23.380;2023-04-27T07:48:48;94249.97;;;11.17;46.55
39301;BME280;25019;42.626;23.380;2023-04-27T07:51:14;94188.81;;;10.74;46.44
39301;BME280;25019;42.626;23.380;2023-04-27T07:53:41;94307.66;;;11.54;45.77
39301;BME280;25019;42.626;23.380;2023-04-27T07:56:07;94303.31;;;11.38;46.31
39301;BME280;25019;42.626;23.380;2023-04-27T07:58:34;94303.16;;;11.55;47.07
39301;BME280;25019;42.626;23.380;2023-04-27T08:01:00;94293.75;;;11.90;45.52
39301;BME280;25019;42.626;23.380;2023-04-27T08:03:26;94307.22;;;12.11;44.95
39301;BME280;25019;42.626;23.380;2023-04-27T08:05:52;94256.91;;;11.61;44.85
39301;BME280;25019;42.626;23.380;2023-04-27T08:08:18;94248.97;;;11.23;45.18
39301;BME280;25019;42.626;23.380;2023-04-27T08:10:43;94300.16;;;11.46;46.47
39301;BME280;25019;42.626;23.380;2023-04-27T08:13:09;94307.19;;;11.63;46.45
39301;BME280;25019;42.626;23.380;2023-04-27T08:15:35;94296.19;;;11.92;44.83
39301;BME280;25019;42.626;23.380;2023-04-27T08:18:01;94273.34;;;12.01;44.57
39301;BME280;25019;42.626;23.380;2023-04-27T08:20:27;94245.47;;;11.61;44.86
39301;BME280;25019;42.626;23.380;2023-04-27T08:22:53;94272.97;;;11.82;43.92
39301;BME280;25019;42.626;23.380;2023-04-27T08:25:18;94281.22;;;11.80;43.96
39301;BME280;25019;42.626;23.380;2023-04-27T08:27:44;94300.00;;;12.11;43.97
39301;BME280;25019;42.626;23.380;2023-04-27T08:30:10;94211.59;;;11.41;43.44
39301;BME280;25019;42.626;23.380;2023-04-27T08:32:36;94300.88;;;11.79;44.20
39301;BME280;25019;42.626;23.380;2023-04-27T08:35:01;94256.03;;;11.50;44.29
39301;BME280;25019;42.626;23.380;2023-04-27T08:37:28;94299.41;;;11.99;43.55
39301;BME280;25019;42.626;23.380;2023-04-27T08:39:53;94304.50;;;12.01;43.46
39301;BME280;25019;42.626;23.380;2023-04-27T08:42:19;94294.75;;;12.22;44.06
39301;BME280;25019;42.626;23.380;2023-04-27T08:44:45;94296.31;;;12.18;43.80
39301;BME280;25019;42.626;23.380;2023-04-27T08:47:10;94234.13;;;11.86;43.82
39301;BME280;25019;42.626;23.380;2023-04-27T08:49:36;94304.41;;;12.49;44.24
39301;BME280;25019;42.626;23.380;2023-04-27T08:52:04;94315.41;;;12.83;43.13
39301;BME280;25019;42.626;23.380;2023-04-27T08:54:35;94313.50;;;12.68;42.30
39301;BME280;25019;42.626;23.380;2023-04-27T08:57:00;94250.81;;;12.29;43.19
39301;BME280;25019;42.626;23.380;2023-04-27T08:59:27;94293.78;;;12.54;43.01
39301;BME280;25019;42.626;23.380;2023-04-27T09:01:53;94249.53;;;12.42;42.83
39301;BME280;25019;42.626;23.380;2023-04-27T09:04:19;94304.22;;;12.86;42.64
39301;BME280;25019;42.626;23.380;2023-04-27T09:06:44;94311.16;;;12.87;42.76
39301;BME280;25019;42.626;23.380;2023-04-27T09:09:20;94309.00;;;12.79;41.97
39301;BME280;25019;42.626;23.380;2023-04-27T09:11:46;94305.53;;;12.79;42.36
39301;BME280;25019;42.626;23.380;2023-04-27T09:14:19;94307.88;;;12.54;42.80
39301;BME280;25019;42.626;23.380;2023-04-27T09:16:45;94304.59;;;12.26;42.75
39301;BME280;25019;42.626;23.380;2023-04-27T09:19:25;94281.88;;;11.55;43.37
39301;BME280;25019;42.626;23.380;2023-04-27T09:22:08;94245.41;;;11.50;44.11
39301;BME280;25019;42.626;23.380;2023-04-27T09:24:35;94251.91;;;11.75;43.49
39301;BME280;25019;42.626;23.380;2023-04-27T09:27:02;94298.53;;;12.47;42.33
39301;BME280;25019;42.626;23.380;2023-04-27T09:29:34;94226.03;;;12.13;41.75
39301;BME280;25019;42.626;23.380;2023-04-27T09:32:00;94294.78;;;12.37;42.45
39301;BME280;25019;42.626;23.380;2023-04-27T09:34:36;94197.28;;;11.57;41.57
39301;BME280;25019;42.626;23.380;2023-04-27T09:37:02;94291.81;;;12.23;41.96
39301;BME280;25019;42.626;23.380;2023-04-27T09:39:28;94286.19;;;12.14;42.58
39301;BME280;25019;42.626;23.380;2023-04-27T09:41:55;94225.34;;;11.80;42.61
39301;BME280;25019;42.626;23.380;2023-04-27T09:44:20;94271.75;;;12.05;42.08
39301;BME280;25019;42.626;23.380;2023-04-27T09:46:46;94254.59;;;11.80;42.34
39301;BME280;25019;42.626;23.380;2023-04-27T09:49:14;94202.34;;;11.53;42.21
39301;BME280;25019;42.626;23.380;2023-04-27T09:51:41;94267.28;;;12.11;42.28
39301;BME280;25019;42.626;23.380;2023-04-27T09:54:07;94257.50;;;12.37;42.25
39301;BME280;25019;42.626;23.380;2023-04-27T10:01:54;94249.50;;;12.32;41.62
39301;BME280;25019;42.626;23.380;2023-04-27T10:07:04;94268.47;;;12.62;41.34
39301;BME280;25019;42.626;23.380;2023-04-27T10:09:49;94192.28;;;12.61;40.95
39301;BME280;25019;42.626;23.380;2023-04-27T10:12:32;94217.59;;;13.04;40.09
39301;BME280;25019;42.626;23.380;2023-04-27T10:17:37;94257.00;;;13.65;39.11
39301;BME280;25019;42.626;23.380;2023-04-27T10:20:06;94249.31;;;13.42;39.02
39301;BME280;25019;42.626;23.380;2023-04-27T10:22:40;94247.72;;;12.89;38.96
39301;BME280;25019;42.626;23.380;2023-04-27T10:25:26;94262.91;;;12.89;38.89
39301;BME280;25019;42.626;23.380;2023-04-27T10:27:56;94256.50;;;12.74;38.80
39301;BME280;25019;42.626;23.380;2023-04-27T10:30:24;94255.72;;;12.95;39.32
39301;BME280;25019;42.626;23.380;2023-04-27T10:32:52;94259.72;;;13.02;39.30
39301;BME280;25019;42.626;23.380;2023-04-27T10:35:19;94192.81;;;12.78;39.13
39301;BME280;25019;42.626;23.380;2023-04-27T10:37:48;94263.44;;;13.17;39.88
39301;BME280;25019;42.626;23.380;2023-04-27T10:40:14;94234.41;;;12.95;39.46
39301;BME280;25019;42.626;23.380;2023-04-27T10:42:45;94184.00;;;12.41;39.46
39301;BME280;25019;42.626;23.380;2023-04-27T10:45:12;94261.28;;;12.88;39.40
39301;BME280;25019;42.626;23.380;2023-04-27T10:47:43;94248.78;;;12.94;39.31
39301;BME280;25019;42.626;23.380;2023-04-27T10:50:10;94258.38;;;13.21;38.76
39301;BME280;25019;42.626;23.380;2023-04-27T10:52:44;94253.75;;;13.73;39.08
39301;BME280;25019;42.626;23.380;2023-04-27T10:55:14;94255.84;;;13.91;38.15
39301;BME280;25019;42.626;23.380;2023-04-27T10:57:50;94246.47;;;14.04;37.99
39301;BME280;25019;42.626;23.380;2023-04-27T11:00:28;94234.59;;;14.26;37.02
39301;BME280;25019;42.626;23.380;2023-04-27T11:02:56;94241.16;;;13.94;37.41
39301;BME280;25019;42.626;23.380;2023-04-27T11:05:26;94243.53;;;13.96;38.08
39301;BME280;25019;42.626;23.380;2023-04-27T11:08:07;94171.03;;;13.73;37.65
39301;BME280;25019;42.626;23.380;2023-04-27T11:10:34;94242.78;;;14.45;37.20
39301;BME280;25019;42.626;23.380;2023-04-27T11:13:11;94241.25;;;14.29;37.20
39301;BME280;25019;42.626;23.380;2023-04-27T11:15:59;94239.25;;;14.05;37.39
39301;BME280;25019;42.626;23.380;2023-04-27T11:18:28;94180.75;;;13.27;37.38
39301;BME280;25019;42.626;23.380;2023-04-27T11:21:08;94243.66;;;13.65;37.26
39301;BME280;25019;42.626;23.380;2023-04-27T11:23:35;94235.63;;;13.75;37.21
39301;BME280;25019;42.626;23.380;2023-04-27T11:26:12;94240.38;;;13.93;37.04
39301;BME280;25019;42.626;23.380;2023-04-27T11:28:55;94242.41;;;14.17;36.17
39301;BME280;25019;42.626;23.380;2023-04-27T11:31:22;94245.34;;;14.16;36.23
39301;BME280;25019;42.626;23.380;2023-04-27T11:33:48;94190.75;;;13.87;36.21
39301;BME280;25019;42.626;23.380;2023-04-27T11:36:22;94181.03;;;13.41;35.91
39301;BME280;25019;42.626;23.380;2023-04-27T11:38:48;94251.41;;;13.61;36.41
39301;BME280;25019;42.626;23.380;2023-04-27T11:41:13;94243.16;;;13.26;36.46
39301;BME280;25019;42.626;23.380;2023-04-27T11:43:41;94240.25;;;13.23;37.38
39301;BME280;25019;42.626;23.380;2023-04-27T11:46:08;94237.84;;;13.06;38.20
39301;BME280;25019;42.626;23.380;2023-04-27T11:48:36;94195.75;;;12.77;38.34
39301;BME280;25019;42.626;23.380;2023-04-27T11:51:02;94201.06;;;12.92;38.35
39301;BME280;25019;42.626;23.380;2023-04-27T11:53:29;94252.47;;;13.39;37.82
39301;BME280;25019;42.626;23.380;2023-04-27T11:55:59;94207.47;;;12.76;37.60
39301;BME280;25019;42.626;23.380;2023-04-27T11:58:27;94265.31;;;12.96;38.13
39301;BME280;25019;42.626;23.380;2023-04-27T12:00:57;94263.94;;;12.67;38.96
39301;BME280;25019;42.626;23.380;2023-04-27T12:03:23;94184.50;;;12.33;39.33
39301;BME280;25019;42.626;23.380;2023-04-27T12:05:50;94270.13;;;13.19;39.48
39301;BME280;25019;42.626;23.380;2023-04-27T12:08:18;94268.50;;;13.13;38.60
39301;BME280;25019;42.626;23.380;2023-04-27T12:10:43;94274.09;;;13.01;38.98
39301;BME280;25019;42.626;23.380;2023-04-27T12:13:10;94272.25;;;12.92;38.28
39301;BME280;25019;42.626;23.380;2023-04-27T12:15:37;94271.41;;;12.70;38.34
39301;BME280;25019;42.626;23.380;2023-04-27T12:18:03;94242.34;;;12.38;39.00
39301;BME280;25019;42.626;23.380;2023-04-27T12:20:29;94216.38;;;11.97;39.19
39301;BME280;25019;42.626;23.380;2023-04-27T12:22:59;94203.00;;;11.81;39.35
39301;BME280;25019;42.626;23.380;2023-04-27T12:25:27;94176.59;;;11.69;39.81
39301;BME280;25019;42.626;23.380;2023-04-27T12:27:54;94260.38;;;12.20;40.20
39301;BME280;25019;42.626;23.380;2023-04-27T12:30:22;94197.34;;;11.67;40.14
39301;BME280;25019;42.626;23.380;2023-04-27T12:32:48;94279.34;;;12.39;40.44
39301;BME280;25019;42.626;23.380;2023-04-27T12:35:14;94280.44;;;12.59;39.07
39301;BME280;25019;42.626;23.380;2023-04-27T12:37:39;94274.88;;;12.76;38.69
39301;BME280;25019;42.626;23.380;2023-04-27T12:40:07;94277.28;;;12.88;38.46
39301;BME280;25019;42.626;23.380;2023-04-27T12:42:34;94219.47;;;12.88;38.00
39301;BME280;25019;42.626;23.380;2023-04-27T12:45:00;94197.06;;;12.58;38.55
39301;BME280;25019;42.626;23.380;2023-04-27T12:47:26;94202.66;;;12.67;38.66
39301;BME280;25019;42.626;23.380;2023-04-27T12:49:52;94202.66;;;12.62;38.70
39301;BME280;25019;42.626;23.380;2023-04-27T12:52:20;94284.75;;;12.70;38.93
39301;BME280;25019;42.626;23.380;2023-04-27T12:54:47;94257.50;;;12.42;39.69
39301;BME280;25019;42.626;23.380;2023-04-27T12:57:13;94221.78;;;12.33;39.39
39301;BME280;25019;42.626;23.380;2023-04-27T12:59:39;94275.69;;;12.71;39.67
39301;BME280;25019;42.626;23.380;2023-04-27T13:02:05;94283.41;;;12.78;39.92
39301;BME280;25019;42.626;23.380;2023-04-27T13:04:31;94237.81;;;12.59;39.00